sensor_id;sensor_type;location;lat;lon;timestamp;P1;durP1;ratioP1;P2;durP2;ratioP2
12972;SDS011;6551;51.056;9.466;2023-01-04T00:01:07;8.60;;;3.23;;
12972;SDS011;6551;51.056;9.466;2023-01-04T00:03:37;8.20;;;3.00;;
12972;SDS011;6551;51.056;9.466;2023-01-04T00:06:05;6.77;;;3.33;;
12972;SDS011;6551;51.056;9.466;2023-01-04T00:08:31;5.33;;;2.73;;
12972;SDS011;6551;51.056;9.466;2023-01-04T00:11:06;8.73;;;3.27;;
12972;SDS011;6551;51.056;9.466;2023-01-04T00:13:39;4.53;;;3.03;;
12972;SDS011;6551;51.056;9.466;2023-01-04T00:16:06;9.47;;;3.30;;
12972;SDS011;6551;51.056;9.466;2023-01-04T00:18:37;8.40;;;3.20;;
12972;SDS011;6551;51.056;9.466;2023-01-04T00:21:09;3.33;;;2.27;;
12972;SDS011;6551;51.056;9.466;2023-01-04T00:23:56;6.70;;;3.20;;
12972;SDS011;6551;51.056;9.466;2023-01-04T00:26:25;10.30;;;3.40;;
12972;SDS011;6551;51.056;9.466;2023-01-04T00:28:58;8.43;;;3.00;;
12972;SDS011;6551;51.056;9.466;2023-01-04T00:31:27;11.07;;;3.30;;
12972;SDS011;6551;51.056;9.466;2023-01-04T00:33:55;6.23;;;2.63;;
12972;SDS011;6551;51.056;9.466;2023-01-04T00:36:24;4.77;;;2.47;;
12972;SDS011;6551;51.056;9.466;2023-01-04T00:38:51;5.60;;;2.40;;
12972;SDS011;6551;51.056;9.466;2023-01-04T00:41:37;10.77;;;2.90;;
12972;SDS011;6551;51.056;9.466;2023-01-04T00:44:12;6.70;;;2.10;;
12972;SDS011;6551;51.056;9.466;2023-01-04T00:46:40;3.23;;;2.07;;
12972;SDS011;6551;51.056;9.466;2023-01-04T00:49:07;5.67;;;2.67;;
12972;SDS011;6551;51.056;9.466;2023-01-04T00:51:37;3.57;;;1.93;;
12972;SDS011;6551;51.056;9.466;2023-01-04T00:54:06;6.17;;;2.30;;
12972;SDS011;6551;51.056;9.466;2023-01-04T00:56:39;4.80;;;2.23;;
12972;SDS011;6551;51.056;9.466;2023-01-04T00:59:06;4.97;;;2.60;;
12972;SDS011;6551;51.056;9.466;2023-01-04T01:01:33;3.73;;;1.97;;
12972;SDS011;6551;51.056;9.466;2023-01-04T01:03:59;3.87;;;2.27;;
12972;SDS011;6551;51.056;9.466;2023-01-04T01:06:28;5.17;;;1.90;;
12972;SDS011;6551;51.056;9.466;2023-01-04T01:08:55;8.57;;;2.30;;
12972;SDS011;6551;51.056;9.466;2023-01-04T01:11:21;6.90;;;2.37;;
12972;SDS011;6551;51.056;9.466;2023-01-04T01:13:49;5.97;;;1.70;;
12972;SDS011;6551;51.056;9.466;2023-01-04T01:16:16;4.73;;;1.70;;
12972;SDS011;6551;51.056;9.466;2023-01-04T01:18:46;3.63;;;1.83;;
12972;SDS011;6551;51.056;9.466;2023-01-04T01:21:16;6.10;;;2.17;;
12972;SDS011;6551;51.056;9.466;2023-01-04T01:23:46;6.43;;;1.67;;
12972;SDS011;6551;51.056;9.466;2023-01-04T01:26:14;4.47;;;2.10;;
12972;SDS011;6551;51.056;9.466;2023-01-04T01:28:43;6.20;;;1.90;;
12972;SDS011;6551;51.056;9.466;2023-01-04T01:31:11;5.20;;;1.87;;
12972;SDS011;6551;51.056;9.466;2023-01-04T01:33:49;6.43;;;1.73;;
12972;SDS011;6551;51.056;9.466;2023-01-04T01:36:18;4.23;;;2.03;;
12972;SDS011;6551;51.056;9.466;2023-01-04T01:38:47;5.33;;;2.10;;
12972;SDS011;6551;51.056;9.466;2023-01-04T01:41:18;3.10;;;1.60;;
12972;SDS011;6551;51.056;9.466;2023-01-04T01:44:05;3.00;;;1.53;;
12972;SDS011;6551;51.056;9.466;2023-01-04T01:47:20;5.43;;;1.87;;
12972;SDS011;6551;51.056;9.466;2023-01-04T01:49:52;4.73;;;1.67;;
12972;SDS011;6551;51.056;9.466;2023-01-04T01:52:20;5.53;;;1.87;;
12972;SDS011;6551;51.056;9.466;2023-01-04T01:54:53;2.43;;;1.63;;
12972;SDS011;6551;51.056;9.466;2023-01-04T01:57:24;6.87;;;1.83;;
12972;SDS011;6551;51.056;9.466;2023-01-04T01:59:54;6.30;;;1.97;;
12972;SDS011;6551;51.056;9.466;2023-01-04T02:02:25;2.97;;;1.80;;
12972;SDS011;6551;51.056;9.466;2023-01-04T02:04:50;3.17;;;1.80;;
12972;SDS011;6551;51.056;9.466;2023-01-04T02:07:18;5.90;;;1.70;;
12972;SDS011;6551;51.056;9.466;2023-01-04T02:09:49;5.03;;;2.00;;
12972;SDS011;6551;51.056;9.466;2023-01-04T02:12:16;5.63;;;2.03;;
12972;SDS011;6551;51.056;9.466;2023-01-04T02:14:43;2.57;;;1.30;;
12972;SDS011;6551;51.056;9.466;2023-01-04T02:17:19;4.13;;;1.70;;
12972;SDS011;6551;51.056;9.466;2023-01-04T02:23:34;2.77;;;1.37;;
12972;SDS011;6551;51.056;9.466;2023-01-04T02:42:32;5.73;;;1.63;;
12972;SDS011;6551;51.056;9.466;2023-01-04T02:46:30;6.53;;;1.73;;
12972;SDS011;6551;51.056;9.466;2023-01-04T02:48:41;3.40;;;1.40;;
12972;SDS011;6551;51.056;9.466;2023-01-04T02:51:30;2.73;;;1.50;;
12972;SDS011;6551;51.056;9.466;2023-01-04T02:53:59;4.33;;;1.40;;
12972;SDS011;6551;51.056;9.466;2023-01-04T03:00:04;2.17;;;1.30;;
12972;SDS011;6551;51.056;9.466;2023-01-04T03:06:16;6.13;;;1.63;;
12972;SDS011;6551;51.056;9.466;2023-01-04T03:08:56;6.00;;;1.70;;
12972;SDS011;6551;51.056;9.466;2023-01-04T03:11:48;2.90;;;1.40;;
12972;SDS011;6551;51.056;9.466;2023-01-04T03:14:50;4.80;;;1.80;;
12972;SDS011;6551;51.056;9.466;2023-01-04T03:17:25;5.27;;;1.57;;
12972;SDS011;6551;51.056;9.466;2023-01-04T03:19:57;5.27;;;1.77;;
12972;SDS011;6551;51.056;9.466;2023-01-04T03:22:26;3.63;;;1.93;;
12972;SDS011;6551;51.056;9.466;2023-01-04T03:25:29;6.93;;;2.07;;
12972;SDS011;6551;51.056;9.466;2023-01-04T03:28:20;5.00;;;2.00;;
12972;SDS011;6551;51.056;9.466;2023-01-04T03:31:18;2.77;;;1.73;;
12972;SDS011;6551;51.056;9.466;2023-01-04T03:34:09;4.47;;;1.90;;
12972;SDS011;6551;51.056;9.466;2023-01-04T03:36:55;6.07;;;2.23;;
12972;SDS011;6551;51.056;9.466;2023-01-04T03:43:07;4.00;;;1.83;;
12972;SDS011;6551;51.056;9.466;2023-01-04T03:46:04;5.77;;;1.90;;
12972;SDS011;6551;51.056;9.466;2023-01-04T03:49:40;7.10;;;2.30;;
12972;SDS011;6551;51.056;9.466;2023-01-04T03:51:54;3.87;;;1.90;;
12972;SDS011;6551;51.056;9.466;2023-01-04T03:54:27;5.03;;;2.07;;
12972;SDS011;6551;51.056;9.466;2023-01-04T03:57:01;6.87;;;2.30;;
12972;SDS011;6551;51.056;9.466;2023-01-04T03:59:29;7.07;;;2.27;;
12972;SDS011;6551;51.056;9.466;2023-01-04T04:01:56;5.30;;;2.20;;
12972;SDS011;6551;51.056;9.466;2023-01-04T04:04:22;6.40;;;2.13;;
12972;SDS011;6551;51.056;9.466;2023-01-04T04:07:06;8.63;;;2.20;;
12972;SDS011;6551;51.056;9.466;2023-01-04T04:09:51;3.53;;;1.83;;
12972;SDS011;6551;51.056;9.466;2023-01-04T04:12:17;7.43;;;2.43;;
12972;SDS011;6551;51.056;9.466;2023-01-04T04:14:44;4.87;;;2.20;;
12972;SDS011;6551;51.056;9.466;2023-01-04T04:17:09;5.00;;;2.27;;
12972;SDS011;6551;51.056;9.466;2023-01-04T04:19:36;2.87;;;1.77;;
12972;SDS011;6551;51.056;9.466;2023-01-04T04:22:03;4.03;;;2.40;;
12972;SDS011;6551;51.056;9.466;2023-01-04T04:24:29;3.50;;;1.77;;
12972;SDS011;6551;51.056;9.466;2023-01-04T04:26:56;3.57;;;2.17;;
12972;SDS011;6551;51.056;9.466;2023-01-04T04:29:22;5.40;;;2.20;;
12972;SDS011;6551;51.056;9.466;2023-01-04T04:31:49;7.53;;;2.80;;
12972;SDS011;6551;51.056;9.466;2023-01-04T04:34:14;5.00;;;2.30;;
12972;SDS011;6551;51.056;9.466;2023-01-04T04:36:42;4.57;;;2.40;;
12972;SDS011;6551;51.056;9.466;2023-01-04T04:39:09;4.10;;;2.57;;
12972;SDS011;6551;51.056;9.466;2023-01-04T04:41:35;6.80;;;4.17;;
12972;SDS011;6551;51.056;9.466;2023-01-04T04:44:06;6.70;;;2.83;;
12972;SDS011;6551;51.056;9.466;2023-01-04T04:46:37;7.43;;;3.73;;
12972;SDS011;6551;51.056;9.466;2023-01-04T04:49:03;4.93;;;3.10;;
12972;SDS011;6551;51.056;9.466;2023-01-04T04:51:32;5.13;;;3.00;;
12972;SDS011;6551;51.056;9.466;2023-01-04T04:53:58;6.53;;;2.60;;
12972;SDS011;6551;51.056;9.466;2023-01-04T04:56:24;7.57;;;2.67;;
12972;SDS011;6551;51.056;9.466;2023-01-04T04:58:52;8.80;;;3.00;;
12972;SDS011;6551;51.056;9.466;2023-01-04T05:01:19;5.47;;;3.00;;
12972;SDS011;6551;51.056;9.466;2023-01-04T05:03:44;8.23;;;2.83;;
12972;SDS011;6551;51.056;9.466;2023-01-04T05:06:10;8.13;;;3.00;;
12972;SDS011;6551;51.056;9.466;2023-01-04T05:08:36;5.77;;;2.63;;
12972;SDS011;6551;51.056;9.466;2023-01-04T05:11:06;8.63;;;2.93;;
12972;SDS011;6551;51.056;9.466;2023-01-04T05:13:35;5.40;;;2.30;;
12972;SDS011;6551;51.056;9.466;2023-01-04T05:16:03;2.97;;;2.20;;
12972;SDS011;6551;51.056;9.466;2023-01-04T05:18:35;8.40;;;3.50;;
12972;SDS011;6551;51.056;9.466;2023-01-04T05:21:02;4.87;;;2.93;;
12972;SDS011;6551;51.056;9.466;2023-01-04T05:23:28;8.67;;;2.97;;
12972;SDS011;6551;51.056;9.466;2023-01-04T05:25:55;3.33;;;2.97;;
12972;SDS011;6551;51.056;9.466;2023-01-04T05:28:25;8.93;;;3.47;;
12972;SDS011;6551;51.056;9.466;2023-01-04T05:30:52;6.63;;;3.60;;
12972;SDS011;6551;51.056;9.466;2023-01-04T05:33:26;6.47;;;3.03;;
12972;SDS011;6551;51.056;9.466;2023-01-04T05:35:57;4.57;;;3.03;;
12972;SDS011;6551;51.056;9.466;2023-01-04T05:38:27;7.43;;;4.20;;
12972;SDS011;6551;51.056;9.466;2023-01-04T05:40:54;7.57;;;4.17;;
12972;SDS011;6551;51.056;9.466;2023-01-04T05:43:21;4.60;;;3.60;;
12972;SDS011;6551;51.056;9.466;2023-01-04T05:45:50;3.73;;;3.37;;
12972;SDS011;6551;51.056;9.466;2023-01-04T05:48:19;4.90;;;3.50;;
12972;SDS011;6551;51.056;9.466;2023-01-04T05:50:47;5.90;;;3.30;;
12972;SDS011;6551;51.056;9.466;2023-01-04T05:53:14;5.87;;;3.73;;
12972;SDS011;6551;51.056;9.466;2023-01-04T05:55:42;4.83;;;3.47;;
12972;SDS011;6551;51.056;9.466;2023-01-04T05:58:09;4.30;;;3.20;;
12972;SDS011;6551;51.056;9.466;2023-01-04T06:00:35;5.73;;;4.03;;
12972;SDS011;6551;51.056;9.466;2023-01-04T06:03:02;8.67;;;4.53;;
12972;SDS011;6551;51.056;9.466;2023-01-04T06:05:27;4.90;;;3.53;;
12972;SDS011;6551;51.056;9.466;2023-01-04T06:07:54;4.50;;;3.60;;
12972;SDS011;6551;51.056;9.466;2023-01-04T06:10:21;6.50;;;3.83;;
12972;SDS011;6551;51.056;9.466;2023-01-04T06:12:48;5.93;;;3.70;;
12972;SDS011;6551;51.056;9.466;2023-01-04T06:15:15;5.83;;;3.43;;
12972;SDS011;6551;51.056;9.466;2023-01-04T06:17:41;4.77;;;3.30;;
12972;SDS011;6551;51.056;9.466;2023-01-04T06:20:09;6.30;;;3.93;;
12972;SDS011;6551;51.056;9.466;2023-01-04T06:22:36;6.30;;;4.33;;
12972;SDS011;6551;51.056;9.466;2023-01-04T06:25:04;4.63;;;3.40;;
12972;SDS011;6551;51.056;9.466;2023-01-04T06:27:32;7.07;;;3.70;;
12972;SDS011;6551;51.056;9.466;2023-01-04T06:29:57;3.83;;;2.73;;
12972;SDS011;6551;51.056;9.466;2023-01-04T06:32:23;5.63;;;3.90;;
12972;SDS011;6551;51.056;9.466;2023-01-04T06:34:50;4.20;;;3.50;;
12972;SDS011;6551;51.056;9.466;2023-01-04T06:37:16;4.90;;;3.53;;
12972;SDS011;6551;51.056;9.466;2023-01-04T06:39:42;3.37;;;3.00;;
12972;SDS011;6551;51.056;9.466;2023-01-04T06:42:08;5.03;;;3.50;;
12972;SDS011;6551;51.056;9.466;2023-01-04T06:44:55;5.40;;;3.73;;
12972;SDS011;6551;51.056;9.466;2023-01-04T06:47:21;5.27;;;3.10;;
12972;SDS011;6551;51.056;9.466;2023-01-04T06:49:48;3.70;;;2.87;;
12972;SDS011;6551;51.056;9.466;2023-01-04T06:52:13;4.17;;;3.20;;
12972;SDS011;6551;51.056;9.466;2023-01-04T06:54:40;7.17;;;3.60;;
12972;SDS011;6551;51.056;9.466;2023-01-04T06:57:06;6.13;;;3.50;;
12972;SDS011;6551;51.056;9.466;2023-01-04T06:59:33;6.37;;;3.77;;
12972;SDS011;6551;51.056;9.466;2023-01-04T07:01:58;4.57;;;3.67;;
12972;SDS011;6551;51.056;9.466;2023-01-04T07:04:24;4.57;;;3.50;;
12972;SDS011;6551;51.056;9.466;2023-01-04T07:06:50;5.97;;;3.47;;
12972;SDS011;6551;51.056;9.466;2023-01-04T07:09:15;4.93;;;3.57;;
12972;SDS011;6551;51.056;9.466;2023-01-04T07:11:42;4.90;;;3.70;;
12972;SDS011;6551;51.056;9.466;2023-01-04T07:14:08;6.00;;;3.30;;
12972;SDS011;6551;51.056;9.466;2023-01-04T07:16:35;4.53;;;3.40;;
12972;SDS011;6551;51.056;9.466;2023-01-04T07:19:06;3.57;;;2.87;;
12972;SDS011;6551;51.056;9.466;2023-01-04T07:21:33;4.90;;;3.47;;
12972;SDS011;6551;51.056;9.466;2023-01-04T07:23:58;4.93;;;4.23;;
12972;SDS011;6551;51.056;9.466;2023-01-04T07:26:25;4.27;;;3.33;;
12972;SDS011;6551;51.056;9.466;2023-01-04T07:28:52;5.70;;;3.90;;
12972;SDS011;6551;51.056;9.466;2023-01-04T07:31:38;5.13;;;3.60;;
12972;SDS011;6551;51.056;9.466;2023-01-04T07:34:04;5.17;;;3.87;;
12972;SDS011;6551;51.056;9.466;2023-01-04T07:36:30;8.80;;;4.30;;
12972;SDS011;6551;51.056;9.466;2023-01-04T07:39:01;5.73;;;4.33;;
12972;SDS011;6551;51.056;9.466;2023-01-04T07:41:27;7.43;;;4.53;;
12972;SDS011;6551;51.056;9.466;2023-01-04T07:43:53;4.33;;;3.00;;
12972;SDS011;6551;51.056;9.466;2023-01-04T07:46:18;7.10;;;4.23;;
12972;SDS011;6551;51.056;9.466;2023-01-04T07:48:45;7.30;;;3.60;;
12972;SDS011;6551;51.056;9.466;2023-01-04T07:51:11;6.67;;;4.40;;
12972;SDS011;6551;51.056;9.466;2023-01-04T07:53:38;4.40;;;4.00;;
12972;SDS011;6551;51.056;9.466;2023-01-04T07:56:04;4.43;;;4.00;;
12972;SDS011;6551;51.056;9.466;2023-01-04T07:58:30;7.97;;;4.03;;
12972;SDS011;6551;51.056;9.466;2023-01-04T08:01:08;6.17;;;4.50;;
12972;SDS011;6551;51.056;9.466;2023-01-04T08:03:36;5.33;;;4.70;;
12972;SDS011;6551;51.056;9.466;2023-01-04T08:06:06;4.57;;;4.10;;
12972;SDS011;6551;51.056;9.466;2023-01-04T08:08:36;5.27;;;3.60;;
12972;SDS011;6551;51.056;9.466;2023-01-04T08:11:05;4.97;;;4.30;;
12972;SDS011;6551;51.056;9.466;2023-01-04T08:13:35;7.50;;;4.47;;
12972;SDS011;6551;51.056;9.466;2023-01-04T08:16:02;7.20;;;4.60;;
12972;SDS011;6551;51.056;9.466;2023-01-04T08:18:28;8.17;;;5.17;;
12972;SDS011;6551;51.056;9.466;2023-01-04T08:21:05;6.27;;;4.43;;
12972;SDS011;6551;51.056;9.466;2023-01-04T08:23:34;5.17;;;4.13;;
12972;SDS011;6551;51.056;9.466;2023-01-04T08:26:05;7.57;;;4.57;;
12972;SDS011;6551;51.056;9.466;2023-01-04T08:28:36;5.33;;;4.10;;
12972;SDS011;6551;51.056;9.466;2023-01-04T08:31:05;9.33;;;4.73;;
12972;SDS011;6551;51.056;9.466;2023-01-04T08:33:37;8.20;;;5.00;;
12972;SDS011;6551;51.056;9.466;2023-01-04T08:36:07;5.40;;;4.17;;
12972;SDS011;6551;51.056;9.466;2023-01-04T08:38:35;6.17;;;5.30;;
12972;SDS011;6551;51.056;9.466;2023-01-04T08:41:04;8.67;;;5.27;;
12972;SDS011;6551;51.056;9.466;2023-01-04T08:43:31;6.90;;;5.47;;
12972;SDS011;6551;51.056;9.466;2023-01-04T08:45:57;6.23;;;5.10;;
12972;SDS011;6551;51.056;9.466;2023-01-04T08:48:22;6.40;;;4.70;;
12972;SDS011;6551;51.056;9.466;2023-01-04T08:50:49;6.83;;;4.63;;
12972;SDS011;6551;51.056;9.466;2023-01-04T08:53:16;5.10;;;4.60;;
12972;SDS011;6551;51.056;9.466;2023-01-04T08:55:52;8.30;;;5.33;;
12972;SDS011;6551;51.056;9.466;2023-01-04T08:58:18;6.63;;;5.03;;
12972;SDS011;6551;51.056;9.466;2023-01-04T09:00:46;7.23;;;4.63;;
12972;SDS011;6551;51.056;9.466;2023-01-04T09:03:13;6.73;;;5.17;;
12972;SDS011;6551;51.056;9.466;2023-01-04T09:05:40;5.30;;;4.53;;
12972;SDS011;6551;51.056;9.466;2023-01-04T09:08:06;5.70;;;4.80;;
12972;SDS011;6551;51.056;9.466;2023-01-04T09:10:32;7.43;;;5.40;;
12972;SDS011;6551;51.056;9.466;2023-01-04T09:13:04;5.27;;;4.37;;
12972;SDS011;6551;51.056;9.466;2023-01-04T09:15:30;3.87;;;3.47;;
12972;SDS011;6551;51.056;9.466;2023-01-04T09:17:57;5.60;;;4.87;;
12972;SDS011;6551;51.056;9.466;2023-01-04T09:20:24;6.33;;;4.67;;
12972;SDS011;6551;51.056;9.466;2023-01-04T09:22:50;6.33;;;4.80;;
12972;SDS011;6551;51.056;9.466;2023-01-04T09:25:15;12.03;;;5.40;;
12972;SDS011;6551;51.056;9.466;2023-01-04T09:27:43;8.70;;;5.57;;
12972;SDS011;6551;51.056;9.466;2023-01-04T09:30:10;6.73;;;4.63;;
12972;SDS011;6551;51.056;9.466;2023-01-04T09:32:38;7.13;;;4.93;;
12972;SDS011;6551;51.056;9.466;2023-01-04T09:35:05;4.83;;;3.60;;
12972;SDS011;6551;51.056;9.466;2023-01-04T09:37:33;4.57;;;3.40;;
12972;SDS011;6551;51.056;9.466;2023-01-04T09:39:59;6.03;;;3.90;;
12972;SDS011;6551;51.056;9.466;2023-01-04T09:42:26;3.40;;;3.10;;
12972;SDS011;6551;51.056;9.466;2023-01-04T09:44:59;3.53;;;2.80;;
12972;SDS011;6551;51.056;9.466;2023-01-04T09:47:48;5.73;;;3.70;;
12972;SDS011;6551;51.056;9.466;2023-01-04T09:53:45;3.97;;;3.57;;
12972;SDS011;6551;51.056;9.466;2023-01-04T09:56:30;3.53;;;3.00;;
12972;SDS011;6551;51.056;9.466;2023-01-04T09:59:01;4.63;;;3.20;;
12972;SDS011;6551;51.056;9.466;2023-01-04T10:04:26;4.57;;;3.57;;
12972;SDS011;6551;51.056;9.466;2023-01-04T10:07:23;3.70;;;2.90;;
12972;SDS011;6551;51.056;9.466;2023-01-04T10:09:53;6.07;;;3.13;;
12972;SDS011;6551;51.056;9.466;2023-01-04T10:12:26;3.53;;;2.77;;
12972;SDS011;6551;51.056;9.466;2023-01-04T10:15:55;3.57;;;2.93;;
12972;SDS011;6551;51.056;9.466;2023-01-04T10:18:50;3.40;;;2.77;;
12972;SDS011;6551;51.056;9.466;2023-01-04T10:24:43;3.63;;;2.40;;
12972;SDS011;6551;51.056;9.466;2023-01-04T10:28:09;2.83;;;2.20;;
12972;SDS011;6551;51.056;9.466;2023-01-04T10:31:02;2.17;;;1.97;;
12972;SDS011;6551;51.056;9.466;2023-01-04T10:37:17;3.67;;;2.20;;
12972;SDS011;6551;51.056;9.466;2023-01-04T10:39:49;3.57;;;2.57;;
12972;SDS011;6551;51.056;9.466;2023-01-04T10:42:35;4.97;;;2.80;;
12972;SDS011;6551;51.056;9.466;2023-01-04T10:45:37;3.17;;;2.20;;
12972;SDS011;6551;51.056;9.466;2023-01-04T10:51:27;2.83;;;2.20;;
12972;SDS011;6551;51.056;9.466;2023-01-04T10:54:54;5.77;;;1.90;;
12972;SDS011;6551;51.056;9.466;2023-01-04T10:57:25;3.07;;;2.20;;
12972;SDS011;6551;51.056;9.466;2023-01-04T11:00:07;3.33;;;2.00;;
12972;SDS011;6551;51.056;9.466;2023-01-04T11:02:53;3.13;;;1.83;;
12972;SDS011;6551;51.056;9.466;2023-01-04T11:05:56;3.00;;;2.40;;
12972;SDS011;6551;51.056;9.466;2023-01-04T11:08:42;2.93;;;2.20;;
12972;SDS011;6551;51.056;9.466;2023-01-04T11:11:19;1.73;;;1.57;;
12972;SDS011;6551;51.056;9.466;2023-01-04T11:14:08;3.70;;;2.23;;
12972;SDS011;6551;51.056;9.466;2023-01-04T11:16:35;4.27;;;3.43;;
12972;SDS011;6551;51.056;9.466;2023-01-04T11:19:23;3.30;;;2.53;;
12972;SDS011;6551;51.056;9.466;2023-01-04T11:21:52;5.30;;;2.30;;
12972;SDS011;6551;51.056;9.466;2023-01-04T11:24:41;1.93;;;1.37;;
12972;SDS011;6551;51.056;9.466;2023-01-04T11:27:39;4.63;;;2.40;;
12972;SDS011;6551;51.056;9.466;2023-01-04T11:30:30;2.20;;;1.70;;
12972;SDS011;6551;51.056;9.466;2023-01-04T11:33:13;2.97;;;2.20;;
12972;SDS011;6551;51.056;9.466;2023-01-04T11:35:44;2.53;;;2.03;;
12972;SDS011;6551;51.056;9.466;2023-01-04T11:38:13;1.83;;;1.63;;
12972;SDS011;6551;51.056;9.466;2023-01-04T11:40:55;2.03;;;1.60;;
12972;SDS011;6551;51.056;9.466;2023-01-04T11:43:27;1.47;;;1.20;;
12972;SDS011;6551;51.056;9.466;2023-01-04T11:46:05;2.50;;;1.40;;
12972;SDS011;6551;51.056;9.466;2023-01-04T11:48:46;3.63;;;1.60;;
12972;SDS011;6551;51.056;9.466;2023-01-04T11:51:18;3.53;;;1.90;;
12972;SDS011;6551;51.056;9.466;2023-01-04T11:57:02;3.20;;;1.60;;
12972;SDS011;6551;51.056;9.466;2023-01-04T11:59:36;2.30;;;1.20;;
12972;SDS011;6551;51.056;9.466;2023-01-04T12:02:20;2.60;;;1.40;;
12972;SDS011;6551;51.056;9.466;2023-01-04T12:04:49;2.97;;;1.40;;
12972;SDS011;6551;51.056;9.466;2023-01-04T12:09:54;2.73;;;1.30;;
12972;SDS011;6551;51.056;9.466;2023-01-04T12:12:27;4.53;;;1.60;;
12972;SDS011;6551;51.056;9.466;2023-01-04T12:15:02;2.27;;;1.47;;
12972;SDS011;6551;51.056;9.466;2023-01-04T12:17:51;2.50;;;2.20;;
12972;SDS011;6551;51.056;9.466;2023-01-04T12:20:27;2.73;;;2.17;;
12972;SDS011;6551;51.056;9.466;2023-01-04T12:22:54;2.60;;;1.73;;
12972;SDS011;6551;51.056;9.466;2023-01-04T12:28:32;2.80;;;1.37;;
12972;SDS011;6551;51.056;9.466;2023-01-04T12:33:52;2.20;;;1.43;;
12972;SDS011;6551;51.056;9.466;2023-01-04T12:50:02;2.20;;;1.17;;
12972;SDS011;6551;51.056;9.466;2023-01-04T12:52:55;2.27;;;1.57;;
12972;SDS011;6551;51.056;9.466;2023-01-04T12:57:56;1.13;;;0.93;;
12972;SDS011;6551;51.056;9.466;2023-01-04T13:03:35;1.57;;;1.20;;
12972;SDS011;6551;51.056;9.466;2023-01-04T13:06:13;1.50;;;1.30;;
12972;SDS011;6551;51.056;9.466;2023-01-04T13:08:44;2.57;;;1.17;;
12972;SDS011;6551;51.056;9.466;2023-01-04T13:11:17;1.40;;;1.10;;
12972;SDS011;6551;51.056;9.466;2023-01-04T13:14:26;2.17;;;1.30;;
12972;SDS011;6551;51.056;9.466;2023-01-04T13:17:18;1.00;;;0.80;;
12972;SDS011;6551;51.056;9.466;2023-01-04T13:19:49;2.93;;;1.10;;
12972;SDS011;6551;51.056;9.466;2023-01-04T13:22:16;2.03;;;1.00;;
12972;SDS011;6551;51.056;9.466;2023-01-04T13:24:46;1.23;;;0.90;;
12972;SDS011;6551;51.056;9.466;2023-01-04T13:27:17;0.70;;;0.60;;
12972;SDS011;6551;51.056;9.466;2023-01-04T13:29:48;0.87;;;0.70;;
12972;SDS011;6551;51.056;9.466;2023-01-04T13:32:25;1.00;;;0.80;;
12972;SDS011;6551;51.056;9.466;2023-01-04T13:48:52;2.23;;;2.03;;
12972;SDS011;6551;51.056;9.466;2023-01-04T13:51:26;1.90;;;1.33;;
12972;SDS011;6551;51.056;9.466;2023-01-04T13:53:59;1.57;;;1.03;;
12972;SDS011;6551;51.056;9.466;2023-01-04T13:56:28;1.63;;;0.93;;
12972;SDS011;6551;51.056;9.466;2023-01-04T13:58:57;2.60;;;1.17;;
12972;SDS011;6551;51.056;9.466;2023-01-04T14:01:30;0.50;;;0.50;;
12972;SDS011;6551;51.056;9.466;2023-01-04T14:04:04;1.20;;;0.73;;
12972;SDS011;6551;51.056;9.466;2023-01-04T14:06:58;1.50;;;0.90;;
12972;SDS011;6551;51.056;9.466;2023-01-04T14:09:29;0.83;;;0.63;;
12972;SDS011;6551;51.056;9.466;2023-01-04T14:12:06;0.80;;;0.70;;
12972;SDS011;6551;51.056;9.466;2023-01-04T14:14:57;2.10;;;1.10;;
12972;SDS011;6551;51.056;9.466;2023-01-04T14:17:52;0.90;;;0.70;;
12972;SDS011;6551;51.056;9.466;2023-01-04T14:23:01;1.57;;;0.80;;
12972;SDS011;6551;51.056;9.466;2023-01-04T14:25:40;0.63;;;0.60;;
12972;SDS011;6551;51.056;9.466;2023-01-04T14:31:12;1.10;;;0.90;;
12972;SDS011;6551;51.056;9.466;2023-01-04T14:33:45;1.40;;;0.70;;
12972;SDS011;6551;51.056;9.466;2023-01-04T14:36:20;1.40;;;1.07;;
12972;SDS011;6551;51.056;9.466;2023-01-04T14:44:29;1.63;;;0.90;;
12972;SDS011;6551;51.056;9.466;2023-01-04T14:46:56;1.70;;;1.23;;
12972;SDS011;6551;51.056;9.466;2023-01-04T14:49:25;1.00;;;0.70;;
12972;SDS011;6551;51.056;9.466;2023-01-04T14:51:54;0.80;;;0.80;;
12972;SDS011;6551;51.056;9.466;2023-01-04T14:54:27;1.00;;;0.80;;
12972;SDS011;6551;51.056;9.466;2023-01-04T14:56:55;1.70;;;1.10;;
12972;SDS011;6551;51.056;9.466;2023-01-04T14:59:22;2.17;;;1.30;;
12972;SDS011;6551;51.056;9.466;2023-01-04T15:01:49;1.30;;;1.13;;
12972;SDS011;6551;51.056;9.466;2023-01-04T15:04:22;2.57;;;2.33;;
12972;SDS011;6551;51.056;9.466;2023-01-04T15:06:49;2.60;;;2.30;;
12972;SDS011;6551;51.056;9.466;2023-01-04T15:09:20;3.07;;;2.63;;
12972;SDS011;6551;51.056;9.466;2023-01-04T15:11:46;8.63;;;6.63;;
12972;SDS011;6551;51.056;9.466;2023-01-04T15:14:12;2.37;;;1.60;;
12972;SDS011;6551;51.056;9.466;2023-01-04T15:16:39;2.17;;;1.37;;
12972;SDS011;6551;51.056;9.466;2023-01-04T15:19:05;1.30;;;1.20;;
12972;SDS011;6551;51.056;9.466;2023-01-04T15:21:30;1.67;;;1.30;;
12972;SDS011;6551;51.056;9.466;2023-01-04T15:23:56;1.80;;;1.60;;
12972;SDS011;6551;51.056;9.466;2023-01-04T15:26:22;1.77;;;1.30;;
12972;SDS011;6551;51.056;9.466;2023-01-04T15:28:47;1.43;;;1.00;;
12972;SDS011;6551;51.056;9.466;2023-01-04T15:31:13;1.47;;;1.30;;
12972;SDS011;6551;51.056;9.466;2023-01-04T15:33:39;1.50;;;1.40;;
12972;SDS011;6551;51.056;9.466;2023-01-04T15:36:07;1.20;;;1.10;;
12972;SDS011;6551;51.056;9.466;2023-01-04T15:38:39;1.43;;;1.30;;
12972;SDS011;6551;51.056;9.466;2023-01-04T15:41:13;1.90;;;1.57;;
12972;SDS011;6551;51.056;9.466;2023-01-04T15:44:01;1.37;;;1.20;;
12972;SDS011;6551;51.056;9.466;2023-01-04T15:46:29;1.63;;;1.40;;
12972;SDS011;6551;51.056;9.466;2023-01-04T15:48:55;2.37;;;1.40;;
12972;SDS011;6551;51.056;9.466;2023-01-04T15:51:21;1.90;;;1.73;;
12972;SDS011;6551;51.056;9.466;2023-01-04T15:53:51;2.20;;;1.47;;
12972;SDS011;6551;51.056;9.466;2023-01-04T15:56:17;1.30;;;1.20;;
12972;SDS011;6551;51.056;9.466;2023-01-04T15:58:45;3.70;;;2.23;;
12972;SDS011;6551;51.056;9.466;2023-01-04T16:01:16;2.10;;;1.73;;
12972;SDS011;6551;51.056;9.466;2023-01-04T16:03:43;2.53;;;2.27;;
12972;SDS011;6551;51.056;9.466;2023-01-04T16:06:10;2.23;;;1.80;;
12972;SDS011;6551;51.056;9.466;2023-01-04T16:08:41;4.20;;;1.80;;
12972;SDS011;6551;51.056;9.466;2023-01-04T16:11:08;2.90;;;1.70;;
12972;SDS011;6551;51.056;9.466;2023-01-04T16:13:37;2.10;;;1.87;;
12972;SDS011;6551;51.056;9.466;2023-01-04T16:16:03;2.83;;;1.87;;
12972;SDS011;6551;51.056;9.466;2023-01-04T16:18:30;2.00;;;1.90;;
12972;SDS011;6551;51.056;9.466;2023-01-04T16:20:56;2.60;;;1.70;;
12972;SDS011;6551;51.056;9.466;2023-01-04T16:23:25;2.17;;;1.90;;
12972;SDS011;6551;51.056;9.466;2023-01-04T16:26:01;1.73;;;1.30;;
12972;SDS011;6551;51.056;9.466;2023-01-04T16:28:35;4.60;;;1.97;;
12972;SDS011;6551;51.056;9.466;2023-01-04T16:31:02;1.70;;;1.60;;
12972;SDS011;6551;51.056;9.466;2023-01-04T16:33:31;2.30;;;1.90;;
12972;SDS011;6551;51.056;9.466;2023-01-04T16:36:00;2.10;;;1.90;;
12972;SDS011;6551;51.056;9.466;2023-01-04T16:38:31;2.00;;;1.60;;
12972;SDS011;6551;51.056;9.466;2023-01-04T16:41:02;2.30;;;2.10;;
12972;SDS011;6551;51.056;9.466;2023-01-04T16:43:31;2.20;;;2.00;;
12972;SDS011;6551;51.056;9.466;2023-01-04T16:48:40;3.40;;;2.07;;
12972;SDS011;6551;51.056;9.466;2023-01-04T16:51:10;3.90;;;1.80;;
12972;SDS011;6551;51.056;9.466;2023-01-04T16:53:37;1.87;;;1.47;;
12972;SDS011;6551;51.056;9.466;2023-01-04T16:56:07;10.50;;;1.53;;
12972;SDS011;6551;51.056;9.466;2023-01-04T16:58:37;1.60;;;1.30;;
12972;SDS011;6551;51.056;9.466;2023-01-04T17:01:14;1.57;;;1.20;;
12972;SDS011;6551;51.056;9.466;2023-01-04T17:03:44;1.20;;;1.10;;
12972;SDS011;6551;51.056;9.466;2023-01-04T17:06:13;1.23;;;1.13;;
12972;SDS011;6551;51.056;9.466;2023-01-04T17:08:46;3.03;;;1.20;;
12972;SDS011;6551;51.056;9.466;2023-01-04T17:11:15;1.00;;;0.90;;
12972;SDS011;6551;51.056;9.466;2023-01-04T17:13:54;0.63;;;0.63;;
12972;SDS011;6551;51.056;9.466;2023-01-04T17:16:23;1.10;;;1.00;;
12972;SDS011;6551;51.056;9.466;2023-01-04T17:18:51;0.73;;;0.70;;